SBPV/PVH METAR and TAF weather

Enter ICAO airport designator
Station Type Date Time Source
SBPV METAR 2020/07/08 01:00 UTC NOAA

SBPV 080100Z 00000KT 9999 FEW020 24/23 Q1010


Station Type Date Time Source
SBPV Decoded METAR 2020/07/08 01:00 UTC NOAA

Porto Velho Aeroporto , Brazil (SBPV) 08-46S 063-55W 102M
Jul 07, 2020 - 09:00 PM EDT / 2020.07.08 0100 UTC
Wind: Calm:0
Visibility: greater than 7 mile(s):0
Sky conditions: mostly clear
Temperature: 75 F (24 C)
Dew Point: 73 F (23 C)
Relative Humidity: 94%
Pressure (altimeter): 29.83 in. Hg (1010 hPa)
ob: SBPV 080100Z 00000KT 9999 FEW020 24/23 Q1010
cycle: 1

Station Type Date Time Source
SBPV TAF 2020/07/07 18:52 UTC NOAA

TAF SBPV 071500Z 0718/0818 32006KT 9999 SCT040 FEW045TCU TX32/0718Z TN22/0809Z
BECMG 0722/0724 00000KT FEW035
BECMG 0801/0803 CAVOK
BECMG 0811/0813 18005KT
BECMG 0814/0816 30005KT 9999 SCT030
RMK PEJ

Example: see airport list